Coker Creek, TN (37314)

12:50 PM EST on February 01, 2015 (GMT -0500)
Notchey Creek - Low | Change Station
CLOSE
Current Station
Personal Weather Station
Location: Madisonville, TN
Elevation: 1007 ft
Nearby Weather Stations

Elev 1007 ft 35.47 °N, 84.37 °W | Updated 59 seconds ago

Overcast
Overcast
51.4 °F
Feels Like 51.4 °F
N
8.3
Wind Variable Wind from South
Gusts 15.2 mph

Today
High -- | Low -- °F
--% Chance of Precip.
Yesterday
High -- | Low -- °F
Precip. -- in
7:37 AM 6:05 PM
Waxing Gibbous, 95% visible
Pressure 30.06 in
Visibility 10.0 miles
Clouds Few 2200 ft
Mostly Cloudy 3000 ft
Overcast 3600 ft
Dew Point 39 °F
Humidity 63%
Rainfall 0.00 in
Snow Depth Not available.
UV 1 out of 12
Pollen .60 out of 12
Air Quality Not available.
Flu Activity Not available.
METAR KMMI 011735Z AUTO 00000KT 10SM FEW022 BKN030 OVC036 07/M01 A3006 RMK

More Conditions Fewer Conditions

Pressure 30.06 in
Visibility 10.0 miles
Clouds Few 2200 ft
Mostly Cloudy 3000 ft
Overcast 3600 ft
Dew Point 39 °F
Humidity 63%
Rainfall 0.00 in
Snow Depth Not available.
UV 1 out of 12
Pollen .60 out of 12
Air Quality Not available.
Flu Activity Not available.
METAR KMMI 011735Z AUTO 00000KT 10SM FEW022 BKN030 OVC036 07/M01 A3006 RMK

More Conditions Fewer Conditions

10-Day Weather Forecast

Almanac

Astronomy

Feb. 01, 2015 Rise Set
Actual Time
Civil Twilight
Nautical Twilight
Astronomical Twilight
Moon
Length of Visible Light
Length of Day
Tomorrow will be .
, % of the Moon is Illuminated

Today's Extremes

State Highs State Lows

Community

WunderPhotos

Upload Photos

1,792,408 photos uploaded!

WunderBlogs® & News

Nearby

Air Quality

  Air Quality AQ Index Pollutant
Not available.

Snow Depth

Station Depth Elevation

Earthquake Activity

City Distance Mag. Time & Date
Minimum magnitude displayed is 2.5.

Coastal Water Temperatures

Place Temperature

Nearby Weather Stations